Gaines Landing, Arkansas
Current Conditions -  °F | °C
As of 9:53 PM on Wednesday 22 Oct 2014 (Local Time) from KGLH Reporting Station
Clear Clear  
Wind Chill: 12°   Ceiling: Unl
Heat Index: 12°   Visibility: 10mi
Dew Point:   Wind: 5mph
Humidity: 72%   Direction: 50°NE
Pressure: 30.15"   Gusts: NA
Location:  33.3324°N, 91.3183°W
Report Text: KGLH 230253Z AUTO 05004KT 10SM CLR 12/07 A3015 RMK AO2 SLP217 T01220072 52007
Loading
Personal Weather Stations






























Interactive Weather Map
Tropical Storm Tracking
New forecast layout! Learn more

10-Day Weather Forecast

Advertisements
Track Severe Weather on mobile